Terminal Aerodrome Forecast
Issued by NWS

Home | Current Version | Previous Version | Graphics & Text | Print | Product List | Glossary On
Versions: 1 2 3 4 5 6 7 8 9 10 11 12 13 14
000
FTUS43 KMPX 172300 RRA
TAFAXN
TAF
KAXN 172339Z 1800/1824 33016G24KT P6SM SCT020
     FM180200 33009KT P6SM BKN020
     FM181000 35006KT P6SM BKN025
     FM181500 VRB03KT P6SM SCT025
     FM182100 18005KT P6SM SCT250=

USA.gov is the U.S. government's official web portal to all federal, state and local government web resources and services.